Terminal Aerodrome Forecast
Issued by NWS Jackson, KY

Home | Current Version | Previous Version | Text Only | Print | Product List | Glossary On
Versions: 1 2 3 4 5 6 7 8 9 10 11 12 13
000
FTUS43 KJKL 011052 AAE
TAFJKL
TAF AMD
KJKL 011052Z 0111/0206 VRB05KT P6SM BKN020 OVC050
     FM011500 VRB05KT P6SM SCT025 BKN050=

USA.gov is the U.S. government's official web portal to all federal, state and local government web resources and services.